Time;durP1;ratioP1;P1;durP2;ratioP2;P2;SDS_P1;SDS_P2;PMS_P1;PMS_P2;Temp;Humidity;BMP_temperature;BMP_pressure;BME280_temperature;BME280_humidity;BME280_pressure;Samples;Min_cycle;Max_cycle;Signal;HPM_P1;HPM_P2
2022/03/09 00:02:19;;;;;;;11.37;7.10;;;;;;;;;;5012730;28;20434;-67
2022/03/09 00:04:44;;;;;;;13.43;7.53;;;2.40;99.90;;;;;;5012990;28;20049;-67
2022/03/09 00:07:10;;;;;;;14.27;8.07;;;;;;;;;;5010520;28;20117;-67
2022/03/09 00:09:36;;;;;;;12.93;8.70;;;2.00;99.90;;;;;;5013324;28;20312;-67
2022/03/09 00:12:02;;;;;;;14.43;9.07;;;2.10;99.90;;;;;;5012769;28;20101;-67
2022/03/09 00:14:29;;;;;;;13.70;10.13;;;2.20;99.90;;;;;;5011405;28;20132;-67
2022/03/09 00:16:54;;;;;;;15.97;8.00;;;;;;;;;;5009444;28;20053;-67
2022/03/09 00:19:20;;;;;;;15.90;9.80;;;2.30;99.90;;;;;;4995321;28;20042;-67
2022/03/09 00:21:45;;;;;;;15.57;10.37;;;2.30;96.10;;;;;;5012763;28;20018;-66
2022/03/09 00:24:11;;;;;;;12.40;8.50;;;2.50;99.70;;;;;;5012615;28;20128;-67
2022/03/09 00:26:37;;;;;;;13.97;8.13;;;;;;;;;;5013064;28;20034;-68
2022/03/09 00:29:04;;;;;;;15.17;8.87;;;2.50;99.90;;;;;;5012198;28;20056;-67
2022/03/09 00:31:30;;;;;;;18.20;9.27;;;;;;;;;;5012240;28;20030;-67
2022/03/09 00:33:55;;;;;;;15.87;8.57;;;2.30;99.90;;;;;;5012275;28;20058;-67
2022/03/09 00:36:21;;;;;;;16.07;8.43;;;;;;;;;;5010992;28;20183;-67
2022/03/09 00:38:47;;;;;;;17.13;8.57;;;2.60;99.90;;;;;;5012888;28;20037;-67
2022/03/09 00:41:14;;;;;;;12.10;7.50;;;1.80;94.00;;;;;;5012060;28;20030;-67
2022/03/09 00:43:40;;;;;;;14.70;8.20;;;;;;;;;;5012451;28;20125;-67
2022/03/09 00:46:06;;;;;;;13.83;8.77;;;2.20;99.90;;;;;;5010036;28;20474;-67
2022/03/09 00:48:32;;;;;;;15.80;9.63;;;;;;;;;;5012090;28;20434;-67
2022/03/09 00:50:57;;;;;;;17.23;8.47;;;1.90;99.90;;;;;;5011875;28;20088;-67
2022/03/09 00:53:23;;;;;;;11.27;7.27;;;;;;;;;;5012324;28;20029;-67
2022/03/09 00:55:49;;;;;;;12.37;6.90;;;;;;;;;;5005566;28;20486;-67
2022/03/09 00:58:14;;;;;;;14.03;9.27;;;1.80;99.90;;;;;;5011769;28;20026;-67
2022/03/09 01:00:40;;;;;;;15.87;10.07;;;;;;;;;;5011702;28;20030;-67
2022/03/09 01:03:06;;;;;;;15.77;9.53;;;;;;;;;;5011760;28;20442;-67
2022/03/09 01:05:32;;;;;;;17.37;9.63;;;1.90;99.90;;;;;;5011898;28;20096;-67
2022/03/09 01:07:58;;;;;;;17.47;9.07;;;;;;;;;;5011645;28;20034;-67
2022/03/09 01:10:24;;;;;;;13.60;8.43;;;;;;;;;;5011925;28;20079;-67
2022/03/09 01:12:49;;;;;;;16.67;7.87;;;1.70;99.90;;;;;;5011618;28;20122;-67
2022/03/09 01:15:15;;;;;;;13.30;9.43;;;;;;;;;;5011014;28;20030;-67
2022/03/09 01:17:41;;;;;;;13.83;10.57;;;1.70;99.90;;;;;;5011971;28;20038;-67
2022/03/09 01:20:07;;;;;;;10.37;7.23;;;;;;;;;;5011436;28;20029;-67
2022/03/09 01:22:32;;;;;;;15.23;9.40;;;1.90;99.90;;;;;;5011837;28;20044;-67
2022/03/09 01:24:59;;;;;;;13.03;8.03;;;;;;;;;;5011351;28;20038;-67
2022/03/09 01:27:24;;;;;;;14.20;9.33;;;1.90;99.90;;;;;;5010149;28;20176;-67
2022/03/09 01:29:50;;;;;;;11.50;7.83;;;;;;;;;;5010515;28;20950;-67
2022/03/09 01:32:16;;;;;;;12.13;7.80;;;1.90;99.90;;;;;;5011350;28;20367;-67
2022/03/09 01:34:42;;;;;;;12.00;7.47;;;1.90;99.90;;;;;;5001790;28;20069;-67
2022/03/09 01:37:07;;;;;;;12.23;7.50;;;1.90;99.90;;;;;;5000779;28;20136;-67
2022/03/09 01:39:33;;;;;;;16.40;9.23;;;1.60;99.90;;;;;;5010080;28;20034;-67
2022/03/09 01:41:59;;;;;;;14.70;9.63;;;;;;;;;;5011113;28;20131;-67
2022/03/09 01:44:25;;;;;;;13.87;8.67;;;;;;;;;;5010521;28;20141;-67
2022/03/09 01:46:52;;;;;;;14.20;9.07;;;1.80;99.90;;;;;;5011043;28;20462;-67
2022/03/09 01:49:19;;;;;;;13.47;8.53;;;2.00;99.70;;;;;;5010992;28;20061;-67
2022/03/09 01:51:47;;;;;;;15.90;9.43;;;1.80;97.60;;;;;;5011623;28;20054;-67
2022/03/09 01:54:14;;;;;;;12.37;8.10;;;1.70;95.50;;;;;;5010900;28;20096;-67
2022/03/09 01:56:41;;;;;;;14.53;8.13;;;1.70;99.90;;;;;;5011247;28;20084;-67
2022/03/09 01:59:10;;;;;;;15.00;8.60;;;1.90;98.60;;;;;;5009885;28;20558;-67
2022/03/09 02:01:36;;;;;;;17.10;8.73;;;1.80;99.90;;;;;;5011035;28;20025;-67
2022/03/09 02:04:03;;;;;;;13.83;8.53;;;1.70;95.10;;;;;;5010113;28;20042;-67
2022/03/09 02:06:31;;;;;;;14.63;9.70;;;1.70;94.90;;;;;;5010887;28;20042;-67
2022/03/09 02:11:44;;;;;;;13.83;8.13;;;1.70;94.80;;;;;;5010554;28;20088;-67
2022/03/09 02:14:32;;;;;;;17.77;9.17;;;1.80;99.90;;;;;;5010567;28;20500;-67
2022/03/09 02:16:59;;;;;;;16.17;8.40;;;1.60;99.90;;;;;;5009846;28;20057;-67
2022/03/09 02:19:25;;;;;;;11.63;8.30;;;1.60;94.70;;;;;;5009185;28;20030;-67
2022/03/09 02:22:01;;;;;;;11.23;6.77;;;1.50;95.10;;;;;;5010419;28;20036;-67
2022/03/09 02:24:27;;;;;;;11.57;7.33;;;;;;;;;;5010616;28;20041;-67
2022/03/09 02:26:52;;;;;;;10.40;7.23;;;1.50;99.90;;;;;;5009813;28;20426;-67
2022/03/09 02:29:18;;;;;;;9.67;6.30;;;;;;;;;;5008758;28;20026;-67
2022/03/09 02:31:44;;;;;;;9.83;6.63;;;;;;;;;;5010500;28;20041;-67
2022/03/09 02:34:10;;;;;;;11.33;6.87;;;;;;;;;;5010181;28;20037;-67
2022/03/09 02:36:35;;;;;;;14.80;8.97;;;1.00;99.90;;;;;;5010355;28;20026;-67
2022/03/09 02:39:01;;;;;;;11.17;7.63;;;;;;;;;;5010081;28;20037;-67
2022/03/09 02:41:28;;;;;;;14.87;10.83;;;1.30;99.90;;;;;;5009776;28;20537;-67
2022/03/09 02:43:54;;;;;;;13.30;8.10;;;1.20;99.90;;;;;;5009816;28;20068;-67
2022/03/09 02:46:20;;;;;;;14.37;7.00;;;0.80;99.90;;;;;;5010255;28;20517;-67
2022/03/09 02:48:49;;;;;;;14.20;7.17;;;1.00;98.70;;;;;;5009757;28;20132;-67
2022/03/09 02:51:15;;;;;;;12.83;7.53;;;;;;;;;;5009895;28;20033;-67
2022/03/09 02:53:41;;;;;;;15.93;8.00;;;;;;;;;;5008822;28;20026;-67
2022/03/09 02:56:06;;;;;;;10.47;7.57;;;1.00;99.90;;;;;;5008246;28;20097;-67
2022/03/09 02:58:32;;;;;;;17.07;8.13;;;1.20;99.90;;;;;;5008586;28;20033;-67
2022/03/09 03:00:58;;;;;;;15.33;8.57;;;;;;;;;;5009688;28;20041;-67
2022/03/09 03:03:24;;;;;;;13.07;7.13;;;;;;;;;;5009371;28;20038;-67
2022/03/09 03:05:49;;;;;;;12.07;7.83;;;1.00;99.90;;;;;;5009474;28;20392;-67
2022/03/09 03:08:15;;;;;;;16.60;8.73;;;;;;;;;;5010007;28;20022;-67
2022/03/09 03:10:41;;;;;;;17.33;9.43;;;0.70;99.90;;;;;;5009468;28;20026;-67
2022/03/09 03:13:07;;;;;;;15.47;8.80;;;;;;;;;;5009571;28;20037;-67
2022/03/09 03:15:33;;;;;;;14.30;8.80;;;1.00;99.90;;;;;;5008718;28;20399;-67
2022/03/09 03:17:59;;;;;;;13.20;8.40;;;;;;;;;;5009386;28;20529;-67
2022/03/09 03:20:25;;;;;;;18.47;9.63;;;1.00;99.90;;;;;;5009422;28;20128;-67
2022/03/09 03:22:50;;;;;;;10.30;7.97;;;0.90;99.30;;;;;;5009858;28;20526;-67
2022/03/09 03:25:16;;;;;;;15.50;8.63;;;;;;;;;;5009182;28;20120;-67
2022/03/09 03:27:42;;;;;;;16.30;8.70;;;;;;;;;;5009682;28;20077;-67
2022/03/09 03:30:08;;;;;;;12.63;6.67;;;;;;;;;;5009550;28;20034;-67
2022/03/09 03:32:34;;;;;;;13.33;7.40;;;;;;;;;;5003070;28;20418;-67
2022/03/09 03:35:00;;;;;;;10.63;5.30;;;0.70;99.90;;;;;;5008950;28;20101;-67
2022/03/09 03:37:26;;;;;;;12.57;8.60;;;;;;;;;;5009513;28;20025;-67
2022/03/09 03:39:52;;;;;;;13.93;8.80;;;;;;;;;;5008479;28;20029;-67
2022/03/09 03:42:17;;;;;;;10.93;8.27;;;0.60;99.60;;;;;;5009440;28;20029;-67
2022/03/09 03:44:43;;;;;;;17.83;9.90;;;0.80;99.90;;;;;;5009482;28;20075;-67
2022/03/09 03:47:08;;;;;;;13.83;8.60;;;0.70;99.90;;;;;;5009308;28;20064;-67
2022/03/09 03:49:34;;;;;;;15.37;8.93;;;;;;;;;;5008652;28;20515;-67
2022/03/09 03:52:00;;;;;;;14.30;9.17;;;1.00;99.90;;;;;;5009193;28;20065;-67
2022/03/09 03:54:26;;;;;;;16.23;9.50;;;;;;;;;;5008895;28;20088;-67
2022/03/09 03:56:51;;;;;;;14.60;8.80;;;0.80;99.90;;;;;;5009045;28;20022;-67
2022/03/09 03:59:17;;;;;;;15.87;7.93;;;;;;;;;;5009331;28;20037;-67
2022/03/09 04:01:43;;;;;;;15.30;8.47;;;0.50;99.90;;;;;;5009468;28;20030;-67
2022/03/09 04:04:08;;;;;;;13.17;7.90;;;0.10;99.90;;;;;;5008678;28;20100;-67
2022/03/09 04:06:34;;;;;;;16.40;8.97;;;0.40;99.90;;;;;;5009219;28;20071;-67
2022/03/09 04:08:59;;;;;;;13.73;8.13;;;0.30;99.90;;;;;;5008450;28;20455;-67
2022/03/09 04:11:26;;;;;;;12.57;8.17;;;;;;;;;;5009284;28;20079;-67
2022/03/09 04:13:51;;;;;;;15.17;9.07;;;0.80;99.90;;;;;;5009009;28;20108;-67
2022/03/09 04:16:17;;;;;;;15.33;8.30;;;;;;;;;;5009069;28;20117;-67
2022/03/09 04:18:43;;;;;;;14.37;8.53;;;;;;;;;;5008911;28;20422;-67
2022/03/09 04:21:09;;;;;;;16.73;9.67;;;0.40;99.90;;;;;;5008872;28;20048;-67
2022/03/09 04:23:34;;;;;;;17.57;10.47;;;0.40;99.90;;;;;;5008659;28;20030;-68
2022/03/09 04:26:00;;;;;;;13.60;8.23;;;0.60;99.90;;;;;;5010290;28;20029;-67
2022/03/09 04:28:26;;;;;;;16.87;11.37;;;0.60;99.90;;;;;;5012618;28;20026;-68
2022/03/09 04:30:52;;;;;;;13.97;8.87;;;;;;;;;;5011072;28;20498;-67
2022/03/09 04:33:18;;;;;;;12.63;8.77;;;0.60;99.90;;;;;;5021167;28;20079;-67
2022/03/09 04:35:43;;;;;;;18.73;9.43;;;0.80;99.90;;;;;;5012756;28;20108;-67
2022/03/09 04:38:09;;;;;;;15.33;8.63;;;0.50;99.90;;;;;;5012058;28;20026;-67
2022/03/09 04:40:34;;;;;;;14.83;9.87;;;0.70;99.90;;;;;;5012224;28;20467;-67
2022/03/09 04:43:00;;;;;;;13.67;8.10;;;;;;;;;;5010792;28;20471;-67
2022/03/09 04:45:26;;;;;;;17.30;9.73;;;;;;;;;;5012295;28;20044;-67
2022/03/09 04:47:52;;;;;;;11.90;7.90;;;;;;;;;;5011935;28;20022;-67
2022/03/09 04:50:17;;;;;;;14.13;7.83;;;0.90;99.90;;;;;;5012009;28;20088;-68
2022/03/09 04:52:43;;;;;;;15.80;8.83;;;0.90;99.90;;;;;;5011994;28;20072;-67
2022/03/09 04:55:08;;;;;;;12.43;7.43;;;0.70;99.90;;;;;;5011444;28;20101;-68
2022/03/09 04:57:38;;;;;;;13.70;7.23;;;0.80;99.90;;;;;;5012142;28;20491;-67
2022/03/09 05:00:06;;;;;;;10.47;6.27;;;0.80;99.90;;;;;;5011801;28;20034;-67
2022/03/09 05:02:31;;;;;;;11.07;7.63;;;0.70;99.90;;;;;;5012358;28;20145;-67
2022/03/09 05:04:57;;;;;;;13.30;7.77;;;0.70;99.90;;;;;;5011675;28;20486;-67
2022/03/09 05:07:22;;;;;;;13.23;9.83;;;0.80;99.90;;;;;;5011568;28;20026;-67
2022/03/09 05:09:48;;;;;;;13.43;7.80;;;0.90;99.90;;;;;;5011741;28;20498;-67
2022/03/09 05:12:14;;;;;;;11.57;7.40;;;;;;;;;;5011616;28;20048;-67
2022/03/09 05:14:39;;;;;;;14.67;9.00;;;0.80;99.90;;;;;;5011992;28;20109;-67
2022/03/09 05:17:05;;;;;;;13.60;7.73;;;0.90;99.90;;;;;;5011424;28;20065;-67
2022/03/09 05:19:30;;;;;;;17.13;8.63;;;0.70;99.90;;;;;;5011736;28;20589;-67
2022/03/09 05:21:56;;;;;;;14.37;7.97;;;0.50;99.90;;;;;;5011099;28;20022;-67
2022/03/09 05:24:22;;;;;;;12.30;8.00;;;;;;;;;;5011590;28;20575;-67
2022/03/09 05:26:48;;;;;;;12.97;8.33;;;;;;;;;;5011471;28;20419;-67
2022/03/09 05:29:14;;;;;;;16.40;8.77;;;0.70;97.40;;;;;;5009771;28;20033;-67
2022/03/09 05:31:44;;;;;;;12.53;8.00;;;0.70;99.90;;;;;;5010999;28;20133;-67
2022/03/09 05:34:10;;;;;;;12.47;8.33;;;0.60;99.90;;;;;;5010792;28;20026;-67
2022/03/09 05:36:36;;;;;;;15.20;8.90;;;0.30;99.90;;;;;;5010494;28;20108;-67
2022/03/09 05:39:02;;;;;;;12.87;8.00;;;0.70;99.60;;;;;;5010529;28;20030;-67
2022/03/09 05:41:28;;;;;;;14.27;8.83;;;;;;;;;;5010865;28;20057;-67
2022/03/09 05:43:53;;;;;;;15.80;7.97;;;0.90;99.90;;;;;;5009698;28;20022;-67
2022/03/09 05:46:19;;;;;;;12.73;7.93;;;0.90;99.90;;;;;;5010902;28;20060;-67
2022/03/09 05:48:44;;;;;;;16.30;9.33;;;0.70;99.90;;;;;;5011323;28;20128;-68
2022/03/09 05:51:10;;;;;;;13.93;8.17;;;0.90;99.90;;;;;;5010613;28;20026;-67
2022/03/09 05:53:36;;;;;;;14.27;8.93;;;0.80;99.90;;;;;;5011248;28;20029;-68
2022/03/09 05:56:01;;;;;;;13.07;7.67;;;1.00;99.90;;;;;;5010865;28;20029;-67
2022/03/09 05:58:27;;;;;;;13.63;8.50;;;;;;;;;;5011087;28;20030;-67
2022/03/09 06:00:53;;;;;;;14.53;9.07;;;0.90;99.90;;;;;;5010719;28;20079;-67
2022/03/09 06:03:18;;;;;;;14.00;9.20;;;0.80;99.90;;;;;;5011104;28;20030;-67
2022/03/09 06:05:44;;;;;;;18.73;10.93;;;1.10;99.90;;;;;;5010846;28;20403;-67
2022/03/09 06:08:10;;;;;;;14.47;8.80;;;;;;;;;;5010900;28;20029;-67
2022/03/09 06:10:35;;;;;;;13.87;8.23;;;0.70;99.90;;;;;;5011023;28;20037;-69
2022/03/09 06:13:01;;;;;;;14.60;9.37;;;0.80;99.90;;;;;;5010916;28;20105;-67
2022/03/09 06:15:26;;;;;;;16.63;8.90;;;1.00;99.90;;;;;;5010562;28;20076;-67
2022/03/09 06:17:52;;;;;;;12.37;7.40;;;0.70;99.90;;;;;;5010948;28;20034;-69
2022/03/09 06:20:19;;;;;;;12.83;8.17;;;0.80;98.30;;;;;;5010681;28;20125;-68
2022/03/09 06:22:45;;;;;;;12.63;7.60;;;0.60;99.90;;;;;;5009725;28;20030;-68
2022/03/09 06:25:11;;;;;;;14.23;7.87;;;0.70;99.90;;;;;;5009082;28;20033;-68
2022/03/09 06:27:48;;;;;;;13.30;7.90;;;0.70;99.90;;;;;;5010765;28;20045;-68
2022/03/09 06:30:15;;;;;;;16.10;10.80;;;;;;;;;;5010821;28;20133;-68
2022/03/09 06:32:41;;;;;;;14.10;8.53;;;0.90;99.90;;;;;;5009204;28;20049;-68
2022/03/09 06:35:08;;;;;;;17.93;12.07;;;0.90;99.90;;;;;;5010007;28;20457;-67
2022/03/09 06:37:34;;;;;;;14.80;8.57;;;0.70;99.30;;;;;;5010239;28;20057;-67
2022/03/09 06:40:00;;;;;;;12.17;8.17;;;1.10;99.90;;;;;;5009788;28;20084;-68
2022/03/09 06:42:26;;;;;;;17.97;9.10;;;1.00;99.90;;;;;;5010018;28;20030;-68
2022/03/09 06:44:52;;;;;;;15.33;8.60;;;;;;;;;;5009198;28;20153;-68
2022/03/09 06:47:18;;;;;;;15.23;8.50;;;;;;;;;;4994769;28;20406;-68
2022/03/09 06:49:43;;;;;;;16.63;9.37;;;1.10;99.90;;;;;;5006072;28;20053;-68
2022/03/09 06:52:09;;;;;;;13.63;9.60;;;0.90;99.90;;;;;;5009753;28;20029;-68
2022/03/09 06:54:35;;;;;;;16.10;9.37;;;;;;;;;;5009989;28;20475;-67
2022/03/09 06:57:01;;;;;;;17.40;9.63;;;1.10;99.90;;;;;;5009549;28;20037;-67
2022/03/09 06:59:27;;;;;;;15.80;9.63;;;1.10;99.90;;;;;;5008404;28;20026;-67
2022/03/09 07:01:53;;;;;;;19.40;10.30;;;;;;;;;;5008795;28;20040;-67
2022/03/09 07:04:18;;;;;;;17.90;9.63;;;1.50;99.90;;;;;;5006318;28;20475;-67
2022/03/09 07:06:44;;;;;;;11.03;7.27;;;;;;;;;;5009451;28;20088;-68
2022/03/09 07:09:10;;;;;;;13.07;9.70;;;1.30;99.90;;;;;;5009389;28;20034;-68
2022/03/09 07:11:36;;;;;;;21.77;9.73;;;;;;;;;;5007704;28;20150;-68
2022/03/09 07:14:02;;;;;;;14.87;8.20;;;1.60;99.90;;;;;;5008938;28;20106;-67
2022/03/09 07:16:28;;;;;;;13.93;8.60;;;;;;;;;;5009123;28;20479;-68
2022/03/09 07:18:54;;;;;;;15.70;8.93;;;1.50;99.90;;;;;;5009278;28;20382;-67
2022/03/09 07:21:19;;;;;;;14.33;8.23;;;1.60;99.90;;;;;;5008518;28;20116;-68
2022/03/09 07:23:45;;;;;;;11.97;8.50;;;;;;;;;;5009131;28;20044;-67
2022/03/09 07:26:11;;;;;;;12.70;8.00;;;;;;;;;;5007873;28;20029;-68
2022/03/09 07:28:37;;;;;;;16.17;8.40;;;1.80;99.90;;;;;;5009474;28;20749;-69
2022/03/09 07:31:02;;;;;;;12.40;8.60;;;1.80;99.90;;;;;;5009124;28;20510;-67
2022/03/09 07:33:28;;;;;;;11.70;7.57;;;2.00;99.90;;;;;;5008593;28;20025;-67
2022/03/09 07:35:56;;;;;;;10.77;7.37;;;;;;;;;;5009533;28;20360;-67
2022/03/09 07:38:22;;;;;;;12.70;7.67;;;2.00;99.90;;;;;;5009061;28;20025;-68
2022/03/09 07:40:48;;;;;;;9.67;7.10;;;;;;;;;;5009073;28;20038;-68
2022/03/09 07:43:14;;;;;;;9.97;6.93;;;;;;;;;;5009841;28;20037;-68
2022/03/09 07:45:40;;;;;;;9.77;6.87;;;2.20;99.90;;;;;;5002935;28;20506;-68
2022/03/09 07:48:05;;;;;;;11.43;6.93;;;2.40;99.90;;;;;;5001120;28;20117;-67
2022/03/09 07:50:31;;;;;;;13.30;7.40;;;2.60;99.90;;;;;;5008450;28;20406;-67
2022/03/09 07:52:56;;;;;;;13.43;7.50;;;2.60;99.90;;;;;;5009471;28;20033;-67
2022/03/09 07:55:22;;;;;;;11.13;7.33;;;2.50;96.60;;;;;;5007892;28;20361;-67
2022/03/09 07:57:48;;;;;;;10.57;7.00;;;;;;;;;;5009350;28;20109;-67
2022/03/09 08:00:14;;;;;;;13.37;7.03;;;3.20;99.20;;;;;;5009390;28;20032;-68
2022/03/09 08:02:41;;;;;;;9.97;5.80;;;;;;;;;;5012796;28;20498;-68
2022/03/09 08:05:07;;;;;;;10.13;7.27;;;3.10;99.90;;;;;;5011638;28;20034;-68
2022/03/09 08:07:33;;;;;;;14.57;7.47;;;;;;;;;;5001453;28;20048;-68
2022/03/09 08:09:59;;;;;;;11.47;7.33;;;;;;;;;;4999655;28;20030;-68
2022/03/09 08:12:26;;;;;;;10.90;7.50;;;;;;;;;;4995222;28;20049;-68
2022/03/09 08:14:52;;;;;;;15.03;7.50;;;;;;;;;;5003436;28;20501;-68
2022/03/09 08:17:19;;;;;;;13.30;8.93;;;;;;;;;;5013243;28;20021;-68
2022/03/09 08:19:45;;;;;;;10.67;6.80;;;3.40;99.90;;;;;;5013136;28;20030;-68
2022/03/09 08:22:10;;;;;;;14.40;7.97;;;3.40;99.90;;;;;;5005152;28;20034;-68
2022/03/09 08:24:36;;;;;;;8.97;6.47;;;3.60;99.90;;;;;;4993269;28;20391;-68
2022/03/09 08:27:02;;;;;;;13.10;7.93;;;3.80;99.90;;;;;;4993200;28;20089;-68
2022/03/09 08:29:28;;;;;;;9.63;6.80;;;;;;;;;;4993108;28;20045;-68
2022/03/09 08:31:54;;;;;;;11.00;7.23;;;3.90;99.90;;;;;;5012486;28;20026;-68
2022/03/09 08:34:19;;;;;;;13.07;6.80;;;4.00;99.90;;;;;;5009533;28;20049;-68
2022/03/09 08:36:45;;;;;;;10.63;6.90;;;;;;;;;;5006305;28;20044;-67
2022/03/09 08:39:11;;;;;;;12.77;7.33;;;;;;;;;;5010228;28;20386;-67
2022/03/09 08:41:37;;;;;;;9.03;6.03;;;;;;;;;;5012657;28;20372;-66
2022/03/09 08:44:03;;;;;;;14.13;7.57;;;4.30;99.80;;;;;;5011205;28;20034;-67
2022/03/09 08:46:29;;;;;;;11.13;7.37;;;4.30;99.90;;;;;;5012505;28;20507;-67
2022/03/09 08:48:56;;;;;;;11.57;7.50;;;;;;;;;;5011693;28;20046;-66
2022/03/09 08:51:22;;;;;;;14.67;8.07;;;;;;;;;;5012290;28;20356;-66
2022/03/09 08:53:48;;;;;;;13.63;8.10;;;4.70;94.40;;;;;;5009157;28;20474;-67
2022/03/09 08:56:14;;;;;;;10.27;7.13;;;4.80;99.50;;;;;;5011666;28;20029;-67
2022/03/09 08:58:41;;;;;;;12.17;7.30;;;4.90;99.50;;;;;;5011798;28;20049;-67
2022/03/09 09:01:06;;;;;;;13.57;7.77;;;5.10;99.30;;;;;;5011550;28;20374;-66
2022/03/09 09:03:32;;;;;;;9.33;6.27;;;;;;;;;;5012109;28;20026;-66
2022/03/09 09:05:58;;;;;;;10.23;6.73;;;5.20;99.10;;;;;;5011469;28;20386;-66
2022/03/09 09:08:24;;;;;;;10.83;6.80;;;5.40;99.10;;;;;;4994135;28;20041;-65
2022/03/09 09:10:49;;;;;;;9.63;7.03;;;5.40;98.90;;;;;;4990886;28;20154;-66
2022/03/09 09:13:15;;;;;;;11.87;6.77;;;5.40;98.90;;;;;;4991765;28;20374;-66
2022/03/09 09:15:41;;;;;;;10.03;6.90;;;5.60;91.50;;;;;;4992110;28;20030;-66
2022/03/09 09:18:07;;;;;;;16.97;7.43;;;5.60;98.40;;;;;;4991880;28;20407;-66
2022/03/09 09:20:34;;;;;;;11.90;7.00;;;;;;;;;;4992325;28;20495;-66
2022/03/09 09:23:00;;;;;;;11.87;7.40;;;;;;;;;;5005446;28;20030;-66
2022/03/09 09:25:27;;;;;;;12.73;7.90;;;6.00;98.00;;;;;;5008848;28;20046;-66
2022/03/09 09:27:53;;;;;;;12.63;6.63;;;5.90;96.80;;;;;;5010995;28;20025;-66
2022/03/09 09:30:20;;;;;;;11.83;7.70;;;6.00;94.60;;;;;;5011232;28;20030;-66
2022/03/09 09:32:46;;;;;;;12.60;7.10;;;6.10;97.90;;;;;;5011809;28;20109;-66
2022/03/09 09:35:12;;;;;;;9.63;7.40;;;6.20;90.90;;;;;;5026221;28;20029;-66
2022/03/09 09:37:38;;;;;;;12.97;7.47;;;;;;;;;;5010887;28;20423;-66
2022/03/09 09:40:07;;;;;;;10.13;7.13;;;6.20;90.70;;;;;;5011013;28;20021;-66
2022/03/09 09:42:33;;;;;;;10.50;8.33;;;6.40;90.10;;;;;;5009725;28;20044;-66
2022/03/09 09:45:00;;;;;;;13.47;7.70;;;6.40;97.20;;;;;;5011288;28;20466;-66
2022/03/09 09:47:30;;;;;;;10.33;7.27;;;6.70;97.20;;;;;;5011440;28;20014;-67
2022/03/09 09:49:56;;;;;;;10.97;7.37;;;;;;;;;;5010501;28;20049;-66
2022/03/09 09:52:25;;;;;;;11.63;8.40;;;7.20;89.70;;;;;;5011483;28;20088;-66
2022/03/09 09:54:53;;;;;;;9.10;7.07;;;6.70;94.30;;;;;;5002870;28;20072;-66
2022/03/09 09:57:19;;;;;;;10.10;6.33;;;6.90;92.20;;;;;;4991088;28;20046;-66
2022/03/09 09:59:45;;;;;;;9.97;6.83;;;7.00;96.20;;;;;;5004614;28;20062;-66
2022/03/09 10:02:12;;;;;;;13.03;7.43;;;7.10;96.30;;;;;;5010779;28;20040;-66
2022/03/09 10:04:41;;;;;;;11.67;8.27;;;7.00;96.10;;;;;;5009484;28;20091;-66
2022/03/09 10:07:08;;;;;;;12.07;7.70;;;7.10;96.00;;;;;;5003594;28;20137;-66
2022/03/09 10:09:35;;;;;;;11.57;7.60;;;7.20;88.10;;;;;;4991591;28;20031;-66
2022/03/09 10:12:01;;;;;;;12.53;8.27;;;7.40;95.80;;;;;;4991939;28;20138;-66
2022/03/09 10:14:52;;;;;;;10.33;7.13;;;7.50;95.70;;;;;;5012364;28;20060;-66
2022/03/09 10:17:26;;;;;;;10.80;6.93;;;7.60;93.40;;;;;;5030555;28;20079;-66
2022/03/09 10:19:58;;;;;;;11.50;7.35;;;7.50;95.20;;;;;;5013591;28;20061;-67
2022/03/09 10:22:26;;;;;;;8.97;7.27;;;7.40;95.00;;;;;;5010851;28;20049;-66
2022/03/09 10:24:53;;;;;;;11.00;8.17;;;7.60;95.00;;;;;;5009808;28;20040;-66
2022/03/09 10:27:43;;;;;;;10.17;7.23;;;7.60;86.50;;;;;;5003200;28;20026;-66
2022/03/09 10:30:11;;;;;;;13.30;7.07;;;7.60;86.20;;;;;;4989155;28;20499;-66
2022/03/09 10:32:58;;;;;;;11.83;8.07;;;7.70;95.10;;;;;;4982984;28;20395;-66
2022/03/09 10:35:29;;;;;;;12.23;7.20;;;7.80;83.90;;;;;;5010565;28;20127;-67
2022/03/09 10:38:03;;;;;;;12.63;7.40;;;7.80;85.40;;;;;;5009948;28;20037;-66
2022/03/09 10:40:31;;;;;;;15.60;8.20;;;7.90;85.10;;;;;;5009817;28;20088;-66
2022/03/09 10:43:30;;;;;;;10.83;8.07;;;8.00;82.70;;;;;;4992160;28;20395;-66
2022/03/09 10:46:11;;;;;;;13.63;8.03;;;8.10;82.40;;;;;;4976627;28;20088;-66
2022/03/09 10:48:57;;;;;;;10.40;7.03;;;8.00;94.30;;;;;;5010203;28;20054;-66
2022/03/09 10:51:28;;;;;;;13.13;9.03;;;8.30;81.70;;;;;;5010287;28;20018;-66
2022/03/09 10:53:54;;;;;;;11.70;8.10;;;8.40;88.40;;;;;;5007954;28;20526;-66
2022/03/09 10:56:20;;;;;;;13.67;9.10;;;8.40;92.90;;;;;;5009566;28;20251;-66
2022/03/09 10:58:47;;;;;;;12.20;8.30;;;8.50;93.80;;;;;;5010185;28;20037;-66
2022/03/09 11:01:17;;;;;;;12.27;8.03;;;8.30;80.90;;;;;;5009841;28;20080;-66
2022/03/09 11:03:43;;;;;;;11.00;7.53;;;;;;;;;;5008315;28;20104;-66
2022/03/09 11:06:09;;;;;;;11.00;7.80;;;8.40;93.60;;;;;;5009650;28;20040;-67
2022/03/09 11:08:36;;;;;;;10.87;7.80;;;8.40;92.80;;;;;;5008714;28;20036;-67
2022/03/09 11:11:03;;;;;;;14.97;8.37;;;8.50;82.50;;;;;;5009050;28;20121;-67
2022/03/09 11:13:31;;;;;;;13.90;9.77;;;8.40;93.20;;;;;;5008228;28;20092;-66
2022/03/09 11:15:57;;;;;;;13.17;9.40;;;8.50;80.70;;;;;;5009255;28;20025;-66
2022/03/09 11:18:25;;;;;;;12.93;7.50;;;8.70;93.10;;;;;;4996435;28;20034;-66
2022/03/09 11:20:55;;;;;;;13.80;8.90;;;8.40;89.80;;;;;;5009046;28;20430;-67
2022/03/09 11:23:21;;;;;;;13.80;9.83;;;8.80;80.20;;;;;;5009324;28;20471;-67
2022/03/09 11:25:53;;;;;;;13.83;8.77;;;8.80;79.40;;;;;;5009601;28;20065;-66
2022/03/09 11:28:30;;;;;;;12.33;8.43;;;8.90;93.00;;;;;;5009344;28;20030;-67
2022/03/09 11:31:02;;;;;;;15.33;9.47;;;8.30;80.70;;;;;;5009455;28;20033;-66
2022/03/09 11:33:48;;;;;;;17.53;10.70;;;8.80;92.40;;;;;;4993256;28;20022;-66
2022/03/09 11:36:27;;;;;;;15.00;10.03;;;9.00;92.40;;;;;;5010203;28;20036;-66
2022/03/09 11:39:17;;;;;;;13.93;9.23;;;9.00;90.70;;;;;;5007639;28;20038;-66
2022/03/09 11:41:44;;;;;;;11.87;8.73;;;8.90;85.90;;;;;;5024865;28;20076;-66
2022/03/09 11:44:19;;;;;;;17.87;9.53;;;9.00;78.30;;;;;;5032910;28;20048;-67
2022/03/09 11:47:00;;;;;;;17.57;11.10;;;9.00;80.30;;;;;;5033267;28;20108;-66
2022/03/09 11:49:33;;;;;;;16.93;10.77;;;9.30;92.30;;;;;;5012253;28;20498;-66
2022/03/09 11:52:07;;;;;;;19.88;11.50;;;9.30;80.90;;;;;;5012790;28;20066;-66
2022/03/09 11:54:42;;;;;;;;;;;9.30;81.10;;;;;;5013792;28;20375;-67
2022/03/09 11:57:09;;;;;;;11.87;7.87;;;9.10;92.20;;;;;;5012439;28;19929;-67
2022/03/09 11:59:34;;;;;;;15.10;10.00;;;9.30;92.20;;;;;;5013416;28;20571;-67
2022/03/09 12:02:04;;;;;;;14.60;9.60;;;9.30;92.10;;;;;;5012946;28;20106;-67
2022/03/09 12:04:42;;;;;;;16.30;11.07;;;9.20;92.00;;;;;;5007954;28;20053;-67
2022/03/09 12:07:09;;;;;;;14.07;10.67;;;9.40;79.30;;;;;;4993082;28;20559;-67
2022/03/09 12:09:58;;;;;;;15.43;9.70;;;9.30;92.00;;;;;;4992205;28;20027;-67
2022/03/09 12:12:28;;;;;;;16.03;10.50;;;9.40;90.60;;;;;;4993625;28;20121;-67
2022/03/09 12:15:12;;;;;;;17.20;10.43;;;9.60;92.00;;;;;;4993224;28;20033;-66
2022/03/09 12:17:47;;;;;;;17.83;10.93;;;9.50;91.90;;;;;;4993859;28;20049;-67
2022/03/09 12:20:27;;;;;;;16.17;10.43;;;9.70;76.80;;;;;;5010191;28;20037;-65
2022/03/09 12:22:59;;;;;;;15.80;9.97;;;9.90;91.90;;;;;;4993078;28;20379;-66
2022/03/09 12:25:38;;;;;;;19.57;11.50;;;9.60;91.70;;;;;;4993660;28;20498;-66
2022/03/09 12:28:22;;;;;;;17.53;11.10;;;9.90;89.90;;;;;;4991598;28;20034;-67
2022/03/09 12:30:52;;;;;;;19.40;11.68;;;9.80;79.40;;;;;;4998650;28;20383;-67
2022/03/09 12:33:36;;;;;;;14.97;11.17;;;10.00;76.30;;;;;;5011319;28;20072;-66
2022/03/09 12:36:12;;;;;;;20.40;11.18;;;10.00;90.80;;;;;;5007515;28;20018;-66
2022/03/09 12:38:42;;;;;;;17.23;11.40;;;9.90;91.00;;;;;;5006127;28;20065;-67
2022/03/09 12:41:28;;;;;;;16.83;12.10;;;10.10;75.10;;;;;;5011841;28;20068;-67
2022/03/09 12:43:57;;;;;;;18.20;12.13;;;9.80;90.80;;;;;;5012387;28;20050;-67
2022/03/09 12:46:23;;;;;;;19.93;11.50;;;9.80;87.20;;;;;;5012081;28;20034;-67
2022/03/09 12:48:49;;;;;;;17.77;11.97;;;;;;;;;;5011930;28;20072;-67
2022/03/09 12:51:15;;;;;;;19.40;12.40;;;10.30;91.00;;;;;;5009764;28;20034;-67
2022/03/09 12:53:42;;;;;;;20.50;12.40;;;10.20;76.20;;;;;;5012092;28;20111;-67
2022/03/09 12:56:19;;;;;;;19.20;12.47;;;10.30;90.60;;;;;;5011841;28;20107;-67
2022/03/09 12:58:46;;;;;;;21.83;12.43;;;10.30;90.60;;;;;;5012357;28;20072;-67
2022/03/09 13:01:14;;;;;;;18.53;11.67;;;9.90;86.50;;;;;;5012146;28;20026;-67
2022/03/09 13:03:41;;;;;;;21.60;12.27;;;10.30;90.30;;;;;;5011891;28;20029;-67
2022/03/09 13:06:21;;;;;;;24.87;13.97;;;10.50;90.10;;;;;;5011179;28;20807;-67
2022/03/09 13:08:47;;;;;;;21.13;13.80;;;10.60;89.70;;;;;;5011998;28;20033;-67
2022/03/09 13:11:13;;;;;;;20.23;13.23;;;;;;;;;;5011389;28;20088;-67
2022/03/09 13:13:38;;;;;;;23.90;13.87;;;10.80;88.60;;;;;;5011126;28;20124;-67
2022/03/09 13:16:04;;;;;;;17.37;11.73;;;;;;;;;;5011306;28;20108;-67
2022/03/09 13:18:32;;;;;;;22.47;13.37;;;10.90;87.90;;;;;;5011005;28;20141;-67